createdAt,value
2022-12-23T00:01:37.726Z,20.90
2022-12-23T00:04:05.269Z,21.15
2022-12-23T00:06:32.505Z,33.33
2022-12-23T00:09:00.488Z,65.72
2022-12-23T00:11:28.788Z,44.83
2022-12-23T00:14:20.969Z,34.55
2022-12-23T00:16:49.307Z,28.42
2022-12-23T00:19:16.725Z,24.23
2022-12-23T00:21:43.987Z,23.02
2022-12-23T00:24:12.316Z,27.27
2022-12-23T00:26:39.499Z,23.67
2022-12-23T00:29:06.736Z,22.40
2022-12-23T00:31:34.026Z,21.58
2022-12-23T00:34:01.287Z,22.58
2022-12-23T00:36:29.977Z,23.48
2022-12-23T00:39:17.305Z,21.73
2022-12-23T00:42:02.952Z,23.48
2022-12-23T00:44:30.257Z,23.85
2022-12-23T00:46:57.562Z,23.13
2022-12-23T00:49:43.315Z,22.38
2022-12-23T00:52:13.519Z,23.55
2022-12-23T00:54:40.841Z,22.38
2022-12-23T00:57:08.106Z,23.38
2022-12-23T00:59:35.531Z,22.73
2022-12-23T01:02:21.464Z,23.67
2022-12-23T01:05:07.815Z,23.48
2022-12-23T01:07:35.047Z,23.48
2022-12-23T01:10:02.263Z,25.02
2022-12-23T01:12:29.543Z,23.88
2022-12-23T01:14:56.716Z,26.20
2022-12-23T01:17:24.178Z,25.15
2022-12-23T01:19:51.569Z,23.73
2022-12-23T01:22:18.761Z,24.67
2022-12-23T01:24:46.025Z,24.13
2022-12-23T01:27:13.219Z,24.02
2022-12-23T01:29:40.381Z,24.25
2022-12-23T01:32:08.155Z,25.10
2022-12-23T01:34:37.432Z,24.65
2022-12-23T01:37:04.985Z,25.40
2022-12-23T01:39:32.221Z,26.90
2022-12-23T01:42:17.878Z,26.80
2022-12-23T01:44:52.415Z,25.25
2022-12-23T01:47:41.867Z,27.95
2022-12-23T01:50:16.845Z,26.67
2022-12-23T01:52:52.530Z,28.05
2022-12-23T01:55:22.461Z,29.67
2022-12-23T01:57:50.199Z,28.77
2022-12-23T02:00:36.444Z,28.83
2022-12-23T02:03:22.593Z,29.63
2022-12-23T02:05:50.194Z,30.55
2022-12-23T02:08:36.533Z,29.27
2022-12-23T02:11:22.436Z,31.42
2022-12-23T02:14:27.994Z,30.85
2022-12-23T02:17:13.047Z,28.25
2022-12-23T02:20:20.563Z,30.92
2022-12-23T02:23:09.000Z,30.40
2022-12-23T02:26:13.750Z,31.63
2022-12-23T02:29:19.957Z,31.38
2022-12-23T02:32:01.329Z,29.35
2022-12-23T02:34:55.692Z,31.45
2022-12-23T02:37:45.484Z,30.02
2022-12-23T02:40:37.359Z,31.85
2022-12-23T02:43:11.711Z,31.13
2022-12-23T02:45:54.188Z,30.98
2022-12-23T02:48:45.917Z,29.90
2022-12-23T02:51:14.942Z,29.50
2022-12-23T02:53:49.871Z,31.17
2022-12-23T02:56:19.953Z,30.23
2022-12-23T02:58:53.260Z,31.50
2022-12-23T03:01:21.464Z,30.70
2022-12-23T03:03:50.344Z,32.30
2022-12-23T03:06:43.749Z,32.25
2022-12-23T03:09:20.850Z,28.90
2022-12-23T03:11:53.191Z,27.83
2022-12-23T03:14:46.888Z,28.98
2022-12-23T03:17:21.032Z,29.73
2022-12-23T03:20:18.857Z,29.48
2022-12-23T03:22:49.201Z,28.58
2022-12-23T03:25:23.902Z,29.10
2022-12-23T03:28:01.494Z,28.85
2022-12-23T03:30:30.501Z,28.00
2022-12-23T03:33:09.830Z,28.90
2022-12-23T03:38:08.131Z,28.45
2022-12-23T03:40:58.751Z,28.17
2022-12-23T03:43:29.251Z,28.92
2022-12-23T03:46:03.797Z,28.65
2022-12-23T03:48:37.817Z,28.08
2022-12-23T03:51:14.415Z,27.48
2022-12-23T03:53:51.928Z,28.42
2022-12-23T03:56:31.357Z,28.38
2022-12-23T03:59:11.997Z,28.67
2022-12-23T04:01:48.268Z,29.33
2022-12-23T04:04:27.654Z,27.95
2022-12-23T04:09:27.360Z,25.33
2022-12-23T04:11:57.868Z,28.77
2022-12-23T04:14:25.592Z,27.63
2022-12-23T04:16:55.787Z,29.80
2022-12-23T04:19:23.043Z,29.20
2022-12-23T04:21:50.205Z,29.27
2022-12-23T04:24:17.475Z,27.88
2022-12-23T04:26:44.813Z,28.85
2022-12-23T04:29:12.192Z,27.75
2022-12-23T04:31:39.374Z,28.27
2022-12-23T04:34:06.755Z,25.88
2022-12-23T04:36:33.977Z,27.15
2022-12-23T04:39:01.183Z,27.48
2022-12-23T04:41:28.344Z,26.80
2022-12-23T04:43:55.577Z,28.40
2022-12-23T04:46:22.815Z,27.80
2022-12-23T04:48:50.149Z,27.65
2022-12-23T04:51:17.341Z,25.05
2022-12-23T04:53:44.794Z,27.60
2022-12-23T04:56:11.958Z,25.30
2022-12-23T04:58:39.303Z,24.45
2022-12-23T05:01:08.924Z,24.88
2022-12-23T05:03:37.014Z,24.17
2022-12-23T05:06:04.841Z,24.30
2022-12-23T05:08:32.190Z,22.90
2022-12-23T05:10:59.486Z,22.30
2022-12-23T05:13:26.731Z,23.10
2022-12-23T05:15:54.810Z,21.90
2022-12-23T05:18:22.594Z,20.30
2022-12-23T05:20:50.557Z,20.08
2022-12-23T05:23:18.080Z,20.80
2022-12-23T05:25:52.166Z,20.98
2022-12-23T05:28:19.749Z,19.70
2022-12-23T05:30:47.043Z,21.55
2022-12-23T05:33:14.881Z,20.98
2022-12-23T05:35:42.183Z,20.90
2022-12-23T05:38:09.400Z,19.70
2022-12-23T05:40:36.605Z,20.35
2022-12-23T05:43:04.094Z,20.40
2022-12-23T05:45:31.690Z,19.67
2022-12-23T05:47:58.942Z,19.90
2022-12-23T05:50:26.202Z,17.90
2022-12-23T05:52:55.873Z,19.35
2022-12-23T05:55:23.484Z,20.83
2022-12-23T05:57:51.159Z,19.17
2022-12-23T06:00:19.867Z,19.42
2022-12-23T06:02:53.607Z,19.73
2022-12-23T06:05:21.673Z,18.33
2022-12-23T06:07:48.919Z,18.10
2022-12-23T06:10:16.170Z,19.77
2022-12-23T06:12:43.608Z,18.13
2022-12-23T06:15:11.472Z,18.45
2022-12-23T06:17:38.830Z,18.10
2022-12-23T06:20:06.656Z,18.00
2022-12-23T06:22:34.115Z,18.80
2022-12-23T06:25:01.373Z,19.52
2022-12-23T06:27:28.550Z,17.52
2022-12-23T06:29:56.214Z,19.08
2022-12-23T06:32:23.400Z,19.33
2022-12-23T06:34:53.456Z,20.10
2022-12-23T06:37:21.616Z,18.98
2022-12-23T06:39:48.801Z,18.88
2022-12-23T06:42:15.981Z,19.98
2022-12-23T06:44:43.225Z,20.15
2022-12-23T06:47:12.865Z,20.30
2022-12-23T06:49:40.240Z,18.88
2022-12-23T06:52:07.421Z,20.23
2022-12-23T06:54:34.695Z,20.60
2022-12-23T06:57:01.900Z,20.88
2022-12-23T06:59:30.028Z,19.98
2022-12-23T07:01:57.346Z,19.55
2022-12-23T07:04:24.756Z,19.95
2022-12-23T07:06:51.944Z,21.25
2022-12-23T07:09:19.177Z,23.42
2022-12-23T07:11:50.250Z,20.95
2022-12-23T07:14:17.620Z,21.27
2022-12-23T07:16:45.334Z,22.38
2022-12-23T07:19:12.767Z,21.95
2022-12-23T07:21:40.057Z,22.75
2022-12-23T07:24:12.929Z,21.00
2022-12-23T07:26:44.088Z,21.85
2022-12-23T07:29:12.048Z,21.90
2022-12-23T07:31:41.040Z,22.30
2022-12-23T07:34:09.080Z,23.55
2022-12-23T07:36:36.435Z,22.25
2022-12-23T07:39:04.331Z,22.65
2022-12-23T07:41:31.576Z,22.83
2022-12-23T07:43:58.820Z,22.48
2022-12-23T07:46:26.110Z,20.95
2022-12-23T07:48:53.393Z,21.30
2022-12-23T07:51:20.764Z,21.50
2022-12-23T07:53:51.526Z,20.90
2022-12-23T07:56:19.922Z,20.25
2022-12-23T07:58:51.818Z,19.20
2022-12-23T08:01:19.893Z,20.23
2022-12-23T08:03:48.069Z,19.92
2022-12-23T08:06:16.544Z,20.55
2022-12-23T08:08:46.101Z,20.50
2022-12-23T08:11:14.369Z,21.58
2022-12-23T08:13:43.095Z,20.90
2022-12-23T08:16:10.823Z,20.50
2022-12-23T08:18:39.981Z,18.98
2022-12-23T08:21:19.367Z,20.15
2022-12-23T08:26:20.092Z,19.27
2022-12-23T08:28:48.064Z,19.98
2022-12-23T08:31:24.828Z,20.27
2022-12-23T08:33:54.999Z,20.50
2022-12-23T08:36:30.748Z,20.75
2022-12-23T08:39:01.423Z,21.08
2022-12-23T08:41:31.396Z,19.33
2022-12-23T08:43:59.208Z,19.80
2022-12-23T08:46:26.641Z,19.13
2022-12-23T08:48:54.377Z,20.23
2022-12-23T08:51:23.331Z,19.63
2022-12-23T08:53:54.802Z,19.05
2022-12-23T08:56:27.027Z,20.70
2022-12-23T08:58:55.318Z,20.65
2022-12-23T09:01:24.768Z,18.38
2022-12-23T09:03:52.871Z,18.17
2022-12-23T09:06:29.659Z,19.42
2022-12-23T09:08:57.975Z,18.73
2022-12-23T09:11:26.774Z,17.95
2022-12-23T09:13:54.731Z,17.90
2022-12-23T09:16:22.101Z,16.73
2022-12-23T09:18:49.364Z,15.88
2022-12-23T09:21:21.591Z,16.60
2022-12-23T09:23:49.224Z,16.13
2022-12-23T09:26:25.600Z,15.45
2022-12-23T09:28:53.217Z,16.20
2022-12-23T09:31:21.575Z,14.95
2022-12-23T09:33:50.407Z,14.83
2022-12-23T09:36:18.018Z,13.43
2022-12-23T09:38:45.279Z,13.38
2022-12-23T09:41:26.413Z,14.57
2022-12-23T09:44:09.740Z,14.27
2022-12-23T09:46:42.151Z,14.32
2022-12-23T09:49:15.534Z,14.20
2022-12-23T09:51:42.781Z,13.80
2022-12-23T09:54:29.310Z,14.43
2022-12-23T09:57:20.534Z,14.00
2022-12-23T10:00:12.346Z,14.52
2022-12-23T10:03:01.508Z,13.50
2022-12-23T10:06:06.790Z,12.65
2022-12-23T10:08:36.705Z,12.48
2022-12-23T10:11:19.233Z,13.27
2022-12-23T10:13:56.820Z,12.52
2022-12-23T10:16:28.337Z,12.90
2022-12-23T10:19:25.657Z,13.13
2022-12-23T10:22:06.283Z,12.70
2022-12-23T10:24:47.231Z,12.85
2022-12-23T10:27:40.413Z,13.93
2022-12-23T10:30:34.123Z,12.43
2022-12-23T10:33:24.438Z,13.63
2022-12-23T10:35:51.542Z,12.55
2022-12-23T10:38:21.721Z,14.65
2022-12-23T10:40:51.232Z,14.05
2022-12-23T10:43:39.751Z,13.27
2022-12-23T10:46:35.149Z,13.77
2022-12-23T10:49:17.433Z,13.10
2022-12-23T10:51:49.421Z,13.48
2022-12-23T10:54:35.628Z,14.05
2022-12-23T10:57:03.955Z,13.05
2022-12-23T10:59:35.511Z,13.15
2022-12-23T11:02:05.658Z,12.18
2022-12-23T11:04:36.433Z,12.60
2022-12-23T11:07:42.059Z,13.43
2022-12-23T11:10:23.424Z,11.80
2022-12-23T11:12:52.841Z,12.02
2022-12-23T11:15:26.503Z,11.40
2022-12-23T11:18:12.144Z,11.10
2022-12-23T11:20:41.207Z,11.48
2022-12-23T11:23:25.493Z,11.02
2022-12-23T11:26:11.570Z,11.10
2022-12-23T11:28:46.491Z,10.40
2022-12-23T11:31:14.678Z,10.70
2022-12-23T11:33:57.635Z,10.20
2022-12-23T11:36:27.629Z,9.68
2022-12-23T11:39:13.171Z,10.77
2022-12-23T11:41:45.725Z,10.77
2022-12-23T11:44:22.394Z,11.60
2022-12-23T11:46:50.112Z,11.98
2022-12-23T11:49:25.797Z,11.95
2022-12-23T11:52:02.250Z,12.75
2022-12-23T11:54:37.776Z,12.25
2022-12-23T11:57:08.349Z,11.75
2022-12-23T11:59:49.807Z,11.90
2022-12-23T12:02:34.034Z,12.75
2022-12-23T12:05:17.217Z,13.10
2022-12-23T12:07:52.921Z,14.52
2022-12-23T12:10:27.832Z,12.88
2022-12-23T12:13:08.484Z,13.52
2022-12-23T12:15:58.384Z,13.75
2022-12-23T12:18:27.069Z,14.40
2022-12-23T12:21:00.096Z,14.93
2022-12-23T12:23:35.712Z,13.85
2022-12-23T12:26:08.227Z,13.85
2022-12-23T12:28:40.349Z,13.90
2022-12-23T12:31:41.705Z,14.40
2022-12-23T12:34:33.723Z,15.00
2022-12-23T12:37:26.744Z,14.98
2022-12-23T12:39:58.544Z,14.90
2022-12-23T12:42:39.037Z,17.05
2022-12-23T12:45:21.132Z,17.08
2022-12-23T12:47:56.008Z,15.93
2022-12-23T12:50:33.284Z,17.98
2022-12-23T12:53:08.270Z,17.90
2022-12-23T12:55:42.391Z,16.83
2022-12-23T12:58:19.028Z,17.42
2022-12-23T13:01:12.451Z,17.02
2022-12-23T13:04:04.706Z,15.35
2022-12-23T13:07:05.823Z,16.50
2022-12-23T13:10:00.054Z,17.42
2022-12-23T13:12:44.013Z,18.02
2022-12-23T13:15:22.017Z,17.88
2022-12-23T13:18:03.653Z,16.33
2022-12-23T13:20:41.966Z,15.98
2022-12-23T13:23:42.348Z,15.00
2022-12-23T13:26:37.886Z,15.82
2022-12-23T13:29:39.941Z,14.93
2022-12-23T13:32:31.940Z,14.63
2022-12-23T13:35:35.823Z,14.93
2022-12-23T13:38:49.508Z,13.63
2022-12-23T13:41:26.103Z,14.95
2022-12-23T13:44:05.716Z,15.55
2022-12-23T13:46:41.203Z,14.32
2022-12-23T13:49:30.815Z,14.48
2022-12-23T13:52:24.796Z,15.75
2022-12-23T13:55:13.806Z,15.48
2022-12-23T13:57:40.924Z,15.05
2022-12-23T14:00:26.418Z,15.43
2022-12-23T14:03:00.141Z,14.15
2022-12-23T14:05:45.362Z,13.65
2022-12-23T14:08:30.589Z,13.13
2022-12-23T14:11:01.552Z,13.23
2022-12-23T14:13:52.506Z,14.30
2022-12-23T14:16:42.024Z,13.23
2022-12-23T14:19:39.531Z,11.60
2022-12-23T14:22:31.734Z,11.15
2022-12-23T14:25:37.165Z,9.35
2022-12-23T14:28:27.312Z,8.90
2022-12-23T14:30:55.835Z,9.30
2022-12-23T14:33:28.292Z,9.10
2022-12-23T14:35:58.579Z,8.70
2022-12-23T14:38:33.008Z,8.85
2022-12-23T14:41:23.733Z,9.15
2022-12-23T14:43:56.182Z,8.63
2022-12-23T14:46:35.624Z,9.30
2022-12-23T14:49:38.443Z,9.60
2022-12-23T14:52:42.614Z,9.52
2022-12-23T14:55:40.450Z,9.73
2022-12-23T14:58:27.290Z,10.07
2022-12-23T15:01:07.318Z,10.50
2022-12-23T15:03:40.417Z,10.27
2022-12-23T15:06:07.832Z,9.70
2022-12-23T15:08:39.399Z,10.68
2022-12-23T15:11:09.459Z,10.38
2022-12-23T15:13:37.746Z,10.75
2022-12-23T15:16:06.150Z,10.80
2022-12-23T15:18:33.394Z,11.63
2022-12-23T15:21:11.093Z,11.90
2022-12-23T15:23:38.287Z,11.80
2022-12-23T15:26:05.643Z,12.65
2022-12-23T15:28:38.163Z,13.25
2022-12-23T15:31:06.234Z,13.52
2022-12-23T15:39:00.454Z,14.15
2022-12-23T15:41:28.202Z,15.65
2022-12-23T15:44:01.554Z,15.73
2022-12-23T15:46:30.658Z,15.65
2022-12-23T15:54:27.964Z,18.65
2022-12-23T16:03:40.524Z,20.48
2022-12-23T16:06:19.764Z,31.70
2022-12-23T16:08:57.971Z,30.20
2022-12-23T16:11:57.452Z,24.17
2022-12-23T16:14:31.731Z,31.75
2022-12-23T16:17:00.719Z,29.20
2022-12-23T16:19:41.398Z,23.75
2022-12-23T16:22:17.978Z,20.70
2022-12-23T16:24:59.148Z,19.63
2022-12-23T16:27:38.990Z,21.80
2022-12-23T16:30:24.667Z,21.48
2022-12-23T16:32:55.097Z,18.48
2022-12-23T16:35:42.773Z,19.55
2022-12-23T16:38:19.664Z,19.52
2022-12-23T16:40:49.247Z,19.48
2022-12-23T16:43:16.633Z,19.90
2022-12-23T16:45:45.219Z,19.58
2022-12-23T16:48:31.354Z,18.52
2022-12-23T16:50:59.188Z,20.45
2022-12-23T16:53:27.948Z,20.85
2022-12-23T16:56:00.660Z,22.48
2022-12-23T16:58:28.594Z,21.92
2022-12-23T17:00:56.533Z,21.48
2022-12-23T17:03:23.849Z,22.27
2022-12-23T17:05:52.306Z,22.75
2022-12-23T17:08:19.990Z,22.52
2022-12-23T17:10:47.722Z,23.58
2022-12-23T17:13:17.708Z,22.75
2022-12-23T17:15:45.471Z,22.08
2022-12-23T17:18:15.018Z,29.38
2022-12-23T17:20:43.489Z,23.73
2022-12-23T17:23:27.501Z,22.60
2022-12-23T17:25:55.583Z,24.40
2022-12-23T17:28:23.879Z,21.58
2022-12-23T17:30:54.623Z,27.48
2022-12-23T17:33:22.541Z,27.83
2022-12-23T17:35:49.977Z,24.10
2022-12-23T17:38:17.572Z,23.65
2022-12-23T17:40:46.248Z,24.80
2022-12-23T17:43:15.158Z,21.67
2022-12-23T17:45:42.901Z,22.80
2022-12-23T17:48:20.592Z,22.65
2022-12-23T17:50:48.867Z,23.83
2022-12-23T17:53:20.187Z,20.88
2022-12-23T17:55:47.669Z,27.00
2022-12-23T17:58:15.754Z,29.08
2022-12-23T18:00:43.205Z,22.80
2022-12-23T18:03:22.718Z,23.58
2022-12-23T18:05:54.227Z,23.60
2022-12-23T18:08:21.821Z,23.05
2022-12-23T18:10:49.213Z,23.00
2022-12-23T18:13:19.240Z,22.30
2022-12-23T18:15:46.749Z,21.40
2022-12-23T18:18:17.869Z,21.83
2022-12-23T18:20:52.282Z,21.77
2022-12-23T18:23:23.647Z,19.85
2022-12-23T18:25:50.872Z,20.70
2022-12-23T18:28:18.268Z,21.75
2022-12-23T18:30:45.541Z,22.55
2022-12-23T18:33:13.576Z,22.83
2022-12-23T18:35:46.392Z,22.00
2022-12-23T18:38:21.183Z,22.23
2022-12-23T18:40:52.012Z,19.88
2022-12-23T18:43:23.853Z,23.98
2022-12-23T18:45:55.421Z,31.98
2022-12-23T18:48:22.625Z,27.45
2022-12-23T18:50:51.167Z,25.48
2022-12-23T18:53:24.635Z,25.20
2022-12-23T18:55:54.059Z,23.60
2022-12-23T18:58:21.607Z,26.27
2022-12-23T19:00:49.848Z,29.30
2022-12-23T19:03:28.520Z,30.48
2022-12-23T19:05:56.559Z,31.30
2022-12-23T19:08:26.965Z,31.63
2022-12-23T19:10:55.559Z,29.05
2022-12-23T19:13:23.818Z,29.52
2022-12-23T19:15:51.896Z,29.67
2022-12-23T19:18:20.830Z,29.63
2022-12-23T19:20:48.714Z,29.63
2022-12-23T19:23:16.369Z,29.35
2022-12-23T19:25:52.603Z,29.65
2022-12-23T19:28:23.548Z,28.53
2022-12-23T19:30:50.992Z,28.00
2022-12-23T19:33:18.301Z,28.15
2022-12-23T19:35:45.476Z,28.33
2022-12-23T19:38:12.814Z,29.48
2022-12-23T19:40:40.419Z,31.52
2022-12-23T19:43:08.297Z,32.70
2022-12-23T19:45:36.497Z,31.27
2022-12-23T19:48:03.828Z,31.10
2022-12-23T19:50:31.035Z,33.00
2022-12-23T19:52:58.353Z,31.58
2022-12-23T19:55:25.593Z,34.58
2022-12-23T19:57:54.346Z,34.42
2022-12-23T20:00:21.492Z,35.45
2022-12-23T20:02:52.441Z,37.67
2022-12-23T20:05:24.034Z,35.85
2022-12-23T20:07:51.383Z,38.90
2022-12-23T20:10:18.685Z,36.22
2022-12-23T20:12:45.942Z,35.47
2022-12-23T20:15:13.217Z,34.55
2022-12-23T20:17:40.477Z,34.60
2022-12-23T20:20:11.315Z,32.20
2022-12-23T20:22:38.674Z,31.90
2022-12-23T20:25:06.262Z,32.13
2022-12-23T20:27:33.818Z,31.40
2022-12-23T20:30:01.055Z,32.28
2022-12-23T20:32:28.403Z,33.53
2022-12-23T20:34:55.606Z,36.92
2022-12-23T20:37:24.396Z,35.78
2022-12-23T20:39:52.070Z,36.20
2022-12-23T20:42:19.443Z,34.75
2022-12-23T20:44:46.626Z,36.10
2022-12-23T20:47:13.852Z,35.70
2022-12-23T20:49:41.358Z,34.55
2022-12-23T20:52:10.925Z,35.20
2022-12-23T20:54:38.151Z,36.25
2022-12-23T20:57:05.433Z,35.25
2022-12-23T20:59:33.273Z,37.10
2022-12-23T21:02:00.568Z,37.58
2022-12-23T21:04:28.157Z,39.83
2022-12-23T21:06:55.401Z,41.10
2022-12-23T21:09:22.711Z,41.60
2022-12-23T21:11:50.210Z,42.88
2022-12-23T21:14:17.479Z,41.53
2022-12-23T21:16:45.052Z,43.10
2022-12-23T21:19:23.329Z,41.80
2022-12-23T21:21:51.458Z,41.88
2022-12-23T21:24:20.747Z,46.20
2022-12-23T21:26:56.315Z,46.22
2022-12-23T21:29:26.279Z,45.53
2022-12-23T21:31:54.839Z,42.95
2022-12-23T21:34:22.347Z,44.92
2022-12-23T21:36:49.801Z,44.22
2022-12-23T21:39:17.220Z,46.05
2022-12-23T21:41:46.148Z,46.25
2022-12-23T21:44:15.069Z,46.25
2022-12-23T21:46:42.582Z,46.55
2022-12-23T21:49:10.313Z,44.85
2022-12-23T21:51:40.750Z,45.83
2022-12-23T21:54:09.580Z,44.95
2022-12-23T21:56:43.819Z,44.60
2022-12-23T21:59:15.464Z,45.75
2022-12-23T22:01:43.724Z,43.47
2022-12-23T22:04:10.999Z,43.25
2022-12-23T22:06:43.362Z,42.55
2022-12-23T22:09:13.270Z,40.05
2022-12-23T22:11:40.654Z,42.42
2022-12-23T22:14:10.701Z,40.90
2022-12-23T22:16:38.252Z,42.13
2022-12-23T22:19:06.692Z,41.22
2022-12-23T22:21:34.904Z,41.93
2022-12-23T22:24:02.263Z,41.50
2022-12-23T22:26:31.621Z,40.75
2022-12-23T22:31:47.291Z,39.53
2022-12-23T22:34:17.422Z,36.80
2022-12-23T22:36:44.849Z,38.22
2022-12-23T22:39:20.170Z,36.97
2022-12-23T22:41:49.472Z,39.60
2022-12-23T22:44:16.691Z,36.78
2022-12-23T22:46:46.201Z,37.88
2022-12-23T22:49:14.457Z,35.22
2022-12-23T22:51:42.200Z,36.10
2022-12-23T22:54:10.125Z,35.08
2022-12-23T22:56:38.367Z,34.35
2022-12-23T22:59:05.647Z,33.80
2022-12-23T23:01:35.505Z,30.88
2022-12-23T23:04:05.886Z,30.55
2022-12-23T23:06:37.646Z,29.88
2022-12-23T23:09:07.333Z,28.13
2022-12-23T23:11:35.300Z,29.08
2022-12-23T23:14:02.804Z,28.65
2022-12-23T23:16:30.257Z,27.83
2022-12-23T23:18:58.967Z,25.88
2022-12-23T23:21:26.626Z,26.55
2022-12-23T23:23:53.927Z,26.10
2022-12-23T23:26:21.611Z,25.48
2022-12-23T23:28:49.179Z,26.25
2022-12-23T23:31:41.288Z,26.48
2022-12-23T23:34:03.651Z,26.55
2022-12-23T23:36:30.929Z,25.48
2022-12-23T23:38:58.175Z,26.50
2022-12-23T23:41:28.023Z,27.08
2022-12-23T23:43:55.825Z,26.40
2022-12-23T23:46:23.388Z,26.25
2022-12-23T23:48:50.670Z,26.58
2022-12-23T23:51:17.880Z,26.20
2022-12-23T23:53:45.098Z,26.70
2022-12-23T23:56:12.280Z,26.83
2022-12-23T23:58:39.989Z,27.30
